sensor_id;sensor_type;location;lat;lon;timestamp;temperature;humidity
4594;DHT22;2309;51.674;8.368;2023-03-01T06:21:01;-5.80;1.00
4594;DHT22;2309;51.674;8.368;2023-03-01T06:26:06;-5.50;1.00
4594;DHT22;2309;51.674;8.368;2023-03-01T06:31:06;-5.50;1.00
4594;DHT22;2309;51.674;8.368;2023-03-01T06:33:37;-5.50;1.00
4594;DHT22;2309;51.674;8.368;2023-03-01T06:44:12;-5.00;1.00
4594;DHT22;2309;51.674;8.368;2023-03-01T06:46:45;-4.90;1.00
4594;DHT22;2309;51.674;8.368;2023-03-01T06:49:22;-4.80;99.90
4594;DHT22;2309;51.674;8.368;2023-03-01T06:51:49;-4.70;99.90
4594;DHT22;2309;51.674;8.368;2023-03-01T06:59:56;-4.50;1.00
4594;DHT22;2309;51.674;8.368;2023-03-01T07:01:55;-4.40;1.00
4594;DHT22;2309;51.674;8.368;2023-03-01T07:04:29;-4.30;99.90
4594;DHT22;2309;51.674;8.368;2023-03-01T07:09:24;-4.10;1.00
4594;DHT22;2309;51.674;8.368;2023-03-01T07:11:56;-4.00;1.00
4594;DHT22;2309;51.674;8.368;2023-03-01T07:14:50;-3.80;31.70
4594;DHT22;2309;51.674;8.368;2023-03-01T07:17:03;-3.60;99.90
4594;DHT22;2309;51.674;8.368;2023-03-01T07:19:35;-3.50;1.00
4594;DHT22;2309;51.674;8.368;2023-03-01T07:24:36;-3.30;1.00
4594;DHT22;2309;51.674;8.368;2023-03-01T07:28:09;-3.30;1.00
4594;DHT22;2309;51.674;8.368;2023-03-01T07:29:48;-3.20;2.40
4594;DHT22;2309;51.674;8.368;2023-03-01T07:32:18;-3.10;1.00
4594;DHT22;2309;51.674;8.368;2023-03-01T07:34:44;-3.10;1.00
4594;DHT22;2309;51.674;8.368;2023-03-01T07:37:11;-2.90;99.90
4594;DHT22;2309;51.674;8.368;2023-03-01T07:39:46;-2.90;99.90
4594;DHT22;2309;51.674;8.368;2023-03-01T07:42:10;-2.60;99.90
4594;DHT22;2309;51.674;8.368;2023-03-01T07:44:38;-2.60;99.90
4594;DHT22;2309;51.674;8.368;2023-03-01T07:47:06;-2.40;1.00
4594;DHT22;2309;51.674;8.368;2023-03-01T07:54:42;-2.00;1.00
4594;DHT22;2309;51.674;8.368;2023-03-01T07:57:08;-1.90;99.90
4594;DHT22;2309;51.674;8.368;2023-03-01T07:59:40;-1.70;99.90
4594;DHT22;2309;51.674;8.368;2023-03-01T08:02:11;-1.60;1.00
4594;DHT22;2309;51.674;8.368;2023-03-01T08:04:37;-1.40;99.90
4594;DHT22;2309;51.674;8.368;2023-03-01T08:07:05;-1.30;1.00
4594;DHT22;2309;51.674;8.368;2023-03-01T08:09:34;-1.20;99.90
4594;DHT22;2309;51.674;8.368;2023-03-01T08:12:02;-1.10;99.90
4594;DHT22;2309;51.674;8.368;2023-03-01T08:14:31;-1.00;99.90
4594;DHT22;2309;51.674;8.368;2023-03-01T08:16:58;-0.90;99.90
4594;DHT22;2309;51.674;8.368;2023-03-01T08:19:27;-0.80;99.90
4594;DHT22;2309;51.674;8.368;2023-03-01T08:21:56;-0.70;99.90
4594;DHT22;2309;51.674;8.368;2023-03-01T08:24:24;-0.60;99.90
4594;DHT22;2309;51.674;8.368;2023-03-01T08:26:53;-0.50;99.90
4594;DHT22;2309;51.674;8.368;2023-03-01T08:29:22;-0.50;99.90
4594;DHT22;2309;51.674;8.368;2023-03-01T08:31:50;-0.40;96.10
4594;DHT22;2309;51.674;8.368;2023-03-01T08:34:17;-0.20;1.00
4594;DHT22;2309;51.674;8.368;2023-03-01T08:36:45;-0.30;1.00
4594;DHT22;2309;51.674;8.368;2023-03-01T08:39:14;-0.20;99.90
4594;DHT22;2309;51.674;8.368;2023-03-01T08:41:42;0.10;1.00
4594;DHT22;2309;51.674;8.368;2023-03-01T08:44:09;0.20;1.00
4594;DHT22;2309;51.674;8.368;2023-03-01T08:46:44;0.40;1.00
4594;DHT22;2309;51.674;8.368;2023-03-01T08:49:17;0.60;1.00
4594;DHT22;2309;51.674;8.368;2023-03-01T08:51:40;0.70;1.00
4594;DHT22;2309;51.674;8.368;2023-03-01T08:54:09;0.90;1.00
4594;DHT22;2309;51.674;8.368;2023-03-01T08:56:37;1.10;1.00
4594;DHT22;2309;51.674;8.368;2023-03-01T08:59:07;1.20;1.00
4594;DHT22;2309;51.674;8.368;2023-03-01T09:01:34;1.30;1.00
4594;DHT22;2309;51.674;8.368;2023-03-01T09:04:03;1.50;1.00
4594;DHT22;2309;51.674;8.368;2023-03-01T09:06:35;1.70;1.00
4594;DHT22;2309;51.674;8.368;2023-03-01T09:09:05;1.80;1.00
4594;DHT22;2309;51.674;8.368;2023-03-01T09:11:33;2.00;1.00
4594;DHT22;2309;51.674;8.368;2023-03-01T09:14:04;2.20;1.00
4594;DHT22;2309;51.674;8.368;2023-03-01T09:16:33;2.30;1.00
4594;DHT22;2309;51.674;8.368;2023-03-01T09:19:02;2.40;1.00
4594;DHT22;2309;51.674;8.368;2023-03-01T09:21:29;2.60;1.00
4594;DHT22;2309;51.674;8.368;2023-03-01T09:23:58;2.60;1.00
4594;DHT22;2309;51.674;8.368;2023-03-01T09:26:25;2.90;1.00
4594;DHT22;2309;51.674;8.368;2023-03-01T09:28:55;3.10;1.00
4594;DHT22;2309;51.674;8.368;2023-03-01T09:31:21;3.30;1.00
4594;DHT22;2309;51.674;8.368;2023-03-01T09:36:41;3.50;79.90
4594;DHT22;2309;51.674;8.368;2023-03-01T09:39:12;3.70;76.20
4594;DHT22;2309;51.674;8.368;2023-03-01T09:41:44;3.80;73.50
4594;DHT22;2309;51.674;8.368;2023-03-01T09:44:10;3.90;71.10
4594;DHT22;2309;51.674;8.368;2023-03-01T09:46:38;4.00;66.20
4594;DHT22;2309;51.674;8.368;2023-03-01T09:53:58;4.30;62.60
4594;DHT22;2309;51.674;8.368;2023-03-01T09:56:34;4.50;61.10
4594;DHT22;2309;51.674;8.368;2023-03-01T10:01:48;4.70;61.20
4594;DHT22;2309;51.674;8.368;2023-03-01T10:06:29;4.60;56.50
4594;DHT22;2309;51.674;8.368;2023-03-01T10:09:05;4.70;57.50
4594;DHT22;2309;51.674;8.368;2023-03-01T10:11:32;4.90;55.60
4594;DHT22;2309;51.674;8.368;2023-03-01T10:14:03;4.90;56.00
4594;DHT22;2309;51.674;8.368;2023-03-01T10:16:34;5.00;55.00
4594;DHT22;2309;51.674;8.368;2023-03-01T10:18:59;5.00;54.40
4594;DHT22;2309;51.674;8.368;2023-03-01T10:21:28;4.90;52.50
4594;DHT22;2309;51.674;8.368;2023-03-01T10:26:38;5.50;53.10
4594;DHT22;2309;51.674;8.368;2023-03-01T10:29:12;5.70;51.60
4594;DHT22;2309;51.674;8.368;2023-03-01T10:34:11;5.80;46.40
4594;DHT22;2309;51.674;8.368;2023-03-01T10:41:51;6.50;41.00
4594;DHT22;2309;51.674;8.368;2023-03-01T10:44:54;6.60;38.90
4594;DHT22;2309;51.674;8.368;2023-03-01T10:46:49;6.70;39.40
4594;DHT22;2309;51.674;8.368;2023-03-01T10:51:53;6.90;35.90
4594;DHT22;2309;51.674;8.368;2023-03-01T10:54:28;7.10;35.70
4594;DHT22;2309;51.674;8.368;2023-03-01T10:56:49;7.20;35.10
4594;DHT22;2309;51.674;8.368;2023-03-01T10:59:33;7.10;35.30
4594;DHT22;2309;51.674;8.368;2023-03-01T11:01:45;7.40;31.70
4594;DHT22;2309;51.674;8.368;2023-03-01T11:04:12;7.30;33.10
4594;DHT22;2309;51.674;8.368;2023-03-01T11:06:43;7.50;32.30
4594;DHT22;2309;51.674;8.368;2023-03-01T11:09:24;7.40;29.00
4594;DHT22;2309;51.674;8.368;2023-03-01T11:11:39;7.50;31.40
4594;DHT22;2309;51.674;8.368;2023-03-01T11:14:15;7.50;26.90
4594;DHT22;2309;51.674;8.368;2023-03-01T11:16:49;7.60;29.70
4594;DHT22;2309;51.674;8.368;2023-03-01T11:21:40;8.20;26.50
4594;DHT22;2309;51.674;8.368;2023-03-01T11:24:06;8.90;23.40
4594;DHT22;2309;51.674;8.368;2023-03-01T11:26:34;9.10;20.60
4594;DHT22;2309;51.674;8.368;2023-03-01T11:29:04;10.20;15.80
4594;DHT22;2309;51.674;8.368;2023-03-01T11:31:33;10.30;13.40
4594;DHT22;2309;51.674;8.368;2023-03-01T11:36:48;11.20;6.70
4594;DHT22;2309;51.674;8.368;2023-03-01T11:39:05;11.80;8.60
4594;DHT22;2309;51.674;8.368;2023-03-01T11:41:29;12.40;6.30
4594;DHT22;2309;51.674;8.368;2023-03-01T11:43:57;11.60;1.00
4594;DHT22;2309;51.674;8.368;2023-03-01T11:46:33;12.20;3.70
4594;DHT22;2309;51.674;8.368;2023-03-01T11:51:30;11.70;2.10
4594;DHT22;2309;51.674;8.368;2023-03-01T11:56:29;13.20;1.00
4594;DHT22;2309;51.674;8.368;2023-03-01T11:58:59;14.10;1.00
4594;DHT22;2309;51.674;8.368;2023-03-01T12:01:28;14.30;1.00
4594;DHT22;2309;51.674;8.368;2023-03-01T12:06:27;14.00;1.00
4594;DHT22;2309;51.674;8.368;2023-03-01T12:08:55;14.50;1.00
4594;DHT22;2309;51.674;8.368;2023-03-01T12:14:09;14.20;1.00
4594;DHT22;2309;51.674;8.368;2023-03-01T12:16:31;14.80;1.00
4594;DHT22;2309;51.674;8.368;2023-03-01T12:29:39;14.60;1.00
4594;DHT22;2309;51.674;8.368;2023-03-01T12:34:26;14.80;1.00
4594;DHT22;2309;51.674;8.368;2023-03-01T12:41:58;15.60;1.00
4594;DHT22;2309;51.674;8.368;2023-03-01T12:54:51;16.70;1.00
4594;DHT22;2309;51.674;8.368;2023-03-01T12:57:38;16.80;1.00
4594;DHT22;2309;51.674;8.368;2023-03-01T13:15:42;15.80;1.00
4594;DHT22;2309;51.674;8.368;2023-03-01T13:20:46;16.20;1.00
4594;DHT22;2309;51.674;8.368;2023-03-01T13:23:26;16.40;1.00
4594;DHT22;2309;51.674;8.368;2023-03-01T13:25:51;15.60;1.00
4594;DHT22;2309;51.674;8.368;2023-03-01T13:33:33;16.40;1.00
4594;DHT22;2309;51.674;8.368;2023-03-01T13:35:43;16.70;1.00
4594;DHT22;2309;51.674;8.368;2023-03-01T13:38:36;17.90;1.00
4594;DHT22;2309;51.674;8.368;2023-03-01T13:43:08;19.10;1.00
4594;DHT22;2309;51.674;8.368;2023-03-01T13:45:36;19.40;1.00
4594;DHT22;2309;51.674;8.368;2023-03-01T13:48:08;19.80;1.00
4594;DHT22;2309;51.674;8.368;2023-03-01T13:50:33;19.10;1.00
4594;DHT22;2309;51.674;8.368;2023-03-01T13:53:02;19.20;1.00
4594;DHT22;2309;51.674;8.368;2023-03-01T13:55:37;17.80;1.00
4594;DHT22;2309;51.674;8.368;2023-03-01T13:57:59;18.30;1.00
4594;DHT22;2309;51.674;8.368;2023-03-01T14:00:36;18.00;1.00
4594;DHT22;2309;51.674;8.368;2023-03-01T14:03:02;18.10;1.00
4594;DHT22;2309;51.674;8.368;2023-03-01T14:05:32;18.00;1.00
4594;DHT22;2309;51.674;8.368;2023-03-01T14:07:59;19.00;1.00
4594;DHT22;2309;51.674;8.368;2023-03-01T14:10:28;19.30;1.00
4594;DHT22;2309;51.674;8.368;2023-03-01T14:13:02;19.10;1.00
4594;DHT22;2309;51.674;8.368;2023-03-01T14:18:12;19.00;1.00
4594;DHT22;2309;51.674;8.368;2023-03-01T14:20:29;19.30;1.00
4594;DHT22;2309;51.674;8.368;2023-03-01T14:22:59;19.00;1.00
4594;DHT22;2309;51.674;8.368;2023-03-01T14:25:26;18.20;1.00
4594;DHT22;2309;51.674;8.368;2023-03-01T14:27:56;18.70;1.00
4594;DHT22;2309;51.674;8.368;2023-03-01T14:30:25;19.60;1.00
4594;DHT22;2309;51.674;8.368;2023-03-01T14:32:57;19.00;1.00
4594;DHT22;2309;51.674;8.368;2023-03-01T14:35:25;19.00;1.00
4594;DHT22;2309;51.674;8.368;2023-03-01T14:37:52;19.80;1.00
4594;DHT22;2309;51.674;8.368;2023-03-01T14:40:22;19.80;1.00
4594;DHT22;2309;51.674;8.368;2023-03-01T14:42:52;18.90;1.00
4594;DHT22;2309;51.674;8.368;2023-03-01T14:45:20;19.10;1.00
4594;DHT22;2309;51.674;8.368;2023-03-01T14:47:49;19.40;1.00
4594;DHT22;2309;51.674;8.368;2023-03-01T14:50:24;19.00;1.00
4594;DHT22;2309;51.674;8.368;2023-03-01T14:52:48;18.60;1.00
4594;DHT22;2309;51.674;8.368;2023-03-01T14:55:22;18.70;1.00
4594;DHT22;2309;51.674;8.368;2023-03-01T14:57:47;19.20;1.00
4594;DHT22;2309;51.674;8.368;2023-03-01T15:00:24;19.30;1.00
4594;DHT22;2309;51.674;8.368;2023-03-01T15:03:00;19.20;1.00
4594;DHT22;2309;51.674;8.368;2023-03-01T15:05:27;19.90;1.00
4594;DHT22;2309;51.674;8.368;2023-03-01T15:07:54;20.20;1.00
4594;DHT22;2309;51.674;8.368;2023-03-01T15:10:22;19.30;1.00
4594;DHT22;2309;51.674;8.368;2023-03-01T15:12:50;19.20;1.00
4594;DHT22;2309;51.674;8.368;2023-03-01T15:15:19;19.00;1.00
4594;DHT22;2309;51.674;8.368;2023-03-01T15:17:50;19.20;1.00
4594;DHT22;2309;51.674;8.368;2023-03-01T15:30:13;19.10;1.00
4594;DHT22;2309;51.674;8.368;2023-03-01T15:37:39;19.30;1.00
4594;DHT22;2309;51.674;8.368;2023-03-01T15:45:21;18.30;1.00
4594;DHT22;2309;51.674;8.368;2023-03-01T15:47:51;17.50;1.00
4594;DHT22;2309;51.674;8.368;2023-03-01T15:50:19;17.50;1.00
4594;DHT22;2309;51.674;8.368;2023-03-01T15:52:47;17.40;1.00
4594;DHT22;2309;51.674;8.368;2023-03-01T15:55:16;17.90;1.00
4594;DHT22;2309;51.674;8.368;2023-03-01T15:57:44;18.30;1.00
4594;DHT22;2309;51.674;8.368;2023-03-01T16:00:20;18.40;1.00
4594;DHT22;2309;51.674;8.368;2023-03-01T16:02:57;17.80;1.00
4594;DHT22;2309;51.674;8.368;2023-03-01T16:07:50;17.80;1.00
4594;DHT22;2309;51.674;8.368;2023-03-01T16:10:17;17.70;1.00
